createdAt,value
2022-08-30T00:01:06.709Z,100.00
2022-08-30T00:04:14.332Z,100.00
2022-08-30T00:07:20.561Z,100.00
2022-08-30T00:10:28.824Z,100.00
2022-08-30T00:13:35.743Z,100.00
2022-08-30T00:16:42.172Z,100.00
2022-08-30T00:19:49.856Z,100.00
2022-08-30T00:22:56.088Z,100.00
2022-08-30T00:26:03.007Z,100.00
2022-08-30T00:29:09.350Z,100.00
2022-08-30T00:32:16.375Z,100.00
2022-08-30T00:35:25.286Z,100.00
2022-08-30T00:38:31.895Z,100.00
2022-08-30T00:41:38.406Z,100.00
2022-08-30T00:44:46.127Z,100.00
2022-08-30T00:47:52.925Z,100.00
2022-08-30T00:51:03.600Z,100.00
2022-08-30T00:54:10.106Z,100.00
2022-08-30T00:57:17.222Z,100.00
2022-08-30T01:00:24.024Z,100.00
2022-08-30T01:03:32.599Z,100.00
2022-08-30T01:06:40.736Z,100.00
2022-08-30T01:09:47.532Z,100.00
2022-08-30T01:12:54.203Z,100.00
2022-08-30T01:16:01.164Z,100.00
2022-08-30T01:19:19.731Z,100.00
2022-08-30T01:22:40.716Z,100.00
2022-08-30T01:25:54.333Z,100.00
2022-08-30T01:29:05.506Z,100.00
2022-08-30T01:32:21.184Z,100.00
2022-08-30T01:35:29.813Z,100.00
2022-08-30T01:38:38.610Z,100.00
2022-08-30T01:41:46.711Z,100.00
2022-08-30T01:44:53.611Z,100.00
2022-08-30T01:48:01.654Z,100.00
2022-08-30T01:51:13.523Z,100.00
2022-08-30T01:54:19.823Z,100.00
2022-08-30T01:57:28.411Z,100.00
2022-08-30T02:00:35.252Z,100.00
2022-08-30T02:03:42.313Z,100.00
2022-08-30T02:06:49.291Z,100.00
2022-08-30T02:09:56.950Z,100.00
2022-08-30T02:13:05.442Z,100.00
2022-08-30T02:16:16.231Z,100.00
2022-08-30T02:19:22.467Z,100.00
2022-08-30T02:22:28.888Z,100.00
2022-08-30T02:25:35.585Z,100.00
2022-08-30T02:28:50.044Z,100.00
2022-08-30T02:31:56.593Z,100.00
2022-08-30T02:35:02.700Z,100.00
2022-08-30T02:38:09.610Z,100.00
2022-08-30T02:41:16.272Z,100.00
2022-08-30T02:44:23.981Z,100.00
2022-08-30T02:47:30.375Z,100.00
2022-08-30T02:50:36.425Z,100.00
2022-08-30T02:53:44.716Z,100.00
2022-08-30T02:56:51.787Z,100.00
2022-08-30T02:59:59.685Z,100.00
2022-08-30T03:03:07.574Z,100.00
2022-08-30T03:06:14.059Z,100.00
2022-08-30T03:09:20.495Z,100.00
2022-08-30T03:12:26.769Z,100.00
2022-08-30T03:15:35.504Z,100.00
2022-08-30T03:18:43.293Z,100.00
2022-08-30T03:21:49.452Z,100.00
2022-08-30T03:24:58.107Z,100.00
2022-08-30T03:28:05.672Z,100.00
2022-08-30T03:31:13.834Z,100.00
2022-08-30T03:34:20.269Z,100.00
2022-08-30T03:37:27.684Z,100.00
2022-08-30T03:40:34.089Z,100.00
2022-08-30T03:43:40.417Z,100.00
2022-08-30T03:46:48.646Z,100.00
2022-08-30T03:49:54.859Z,100.00
2022-08-30T03:53:02.061Z,100.00
2022-08-30T03:56:08.760Z,100.00
2022-08-30T03:59:15.542Z,100.00
2022-08-30T04:02:23.586Z,100.00
2022-08-30T04:05:30.140Z,100.00
2022-08-30T04:08:37.228Z,100.00
2022-08-30T04:11:43.939Z,100.00
2022-08-30T04:14:50.541Z,100.00
2022-08-30T04:17:58.467Z,100.00
2022-08-30T04:21:05.615Z,100.00
2022-08-30T04:24:12.392Z,100.00
2022-08-30T04:27:20.498Z,100.00
2022-08-30T04:30:26.812Z,100.00
2022-08-30T04:33:35.722Z,100.00
2022-08-30T04:36:48.057Z,100.00
2022-08-30T04:39:57.580Z,100.00
2022-08-30T04:43:04.218Z,100.00
2022-08-30T04:46:13.963Z,100.00
2022-08-30T04:49:22.999Z,100.00
2022-08-30T04:52:30.600Z,100.00
2022-08-30T04:55:37.544Z,100.00
2022-08-30T04:58:43.656Z,100.00
2022-08-30T05:01:50.140Z,100.00
2022-08-30T05:05:11.580Z,100.00
2022-08-30T05:08:24.755Z,100.00
2022-08-30T05:11:31.803Z,100.00
2022-08-30T05:14:38.435Z,100.00
2022-08-30T05:17:44.952Z,100.00
2022-08-30T05:20:52.465Z,100.00
2022-08-30T05:24:01.118Z,100.00
2022-08-30T05:27:07.703Z,100.00
2022-08-30T05:30:14.916Z,100.00
2022-08-30T05:33:20.972Z,100.00
2022-08-30T05:36:31.145Z,100.00
2022-08-30T05:39:50.941Z,100.00
2022-08-30T05:42:57.959Z,100.00
2022-08-30T05:46:06.641Z,100.00
2022-08-30T05:49:13.160Z,100.00
2022-08-30T05:52:20.979Z,100.00
2022-08-30T05:55:27.191Z,100.00
2022-08-30T05:58:34.107Z,100.00
2022-08-30T06:01:42.403Z,100.00
2022-08-30T06:04:48.850Z,100.00
2022-08-30T06:07:57.191Z,100.00
2022-08-30T06:11:03.627Z,100.00
2022-08-30T06:14:10.343Z,100.00
2022-08-30T06:17:16.756Z,100.00
2022-08-30T06:20:23.501Z,100.00
2022-08-30T06:23:31.779Z,99.14
2022-08-30T06:26:40.858Z,99.73
2022-08-30T06:29:47.821Z,100.00
2022-08-30T06:32:54.227Z,98.23
2022-08-30T06:36:05.940Z,96.82
2022-08-30T06:39:14.082Z,91.69
2022-08-30T06:42:20.618Z,92.85
2022-08-30T06:45:27.071Z,89.29
2022-08-30T06:48:33.423Z,89.46
2022-08-30T06:51:41.264Z,88.03
2022-08-30T06:54:49.939Z,84.23
2022-08-30T06:57:57.530Z,87.26
2022-08-30T07:01:04.128Z,86.29
2022-08-30T07:04:10.712Z,86.28
2022-08-30T07:07:17.001Z,85.28
2022-08-30T07:10:24.561Z,84.16
2022-08-30T07:13:31.375Z,81.64
2022-08-30T07:16:38.099Z,81.47
2022-08-30T07:19:43.514Z,79.29
2022-08-30T07:22:50.465Z,79.93
2022-08-30T07:25:58.520Z,80.50
2022-08-30T07:29:06.487Z,76.24
2022-08-30T07:32:13.071Z,79.36
2022-08-30T07:35:19.575Z,76.35
2022-08-30T07:38:26.081Z,73.05
2022-08-30T07:41:39.723Z,70.49
2022-08-30T07:44:46.413Z,72.21
2022-08-30T07:47:52.988Z,67.02
2022-08-30T07:51:04.501Z,69.55
2022-08-30T07:54:11.379Z,67.94
2022-08-30T07:57:19.551Z,65.79
2022-08-30T08:00:25.974Z,67.24
2022-08-30T08:03:32.617Z,65.16
2022-08-30T08:06:41.181Z,62.37
2022-08-30T08:09:47.875Z,60.72
2022-08-30T08:12:55.479Z,59.50
2022-08-30T08:16:02.009Z,59.61
2022-08-30T08:19:10.043Z,57.32
2022-08-30T08:22:21.369Z,55.33
2022-08-30T08:25:28.578Z,55.31
2022-08-30T08:28:38.490Z,54.77
2022-08-30T08:31:46.847Z,56.36
2022-08-30T08:34:52.975Z,55.92
2022-08-30T08:37:59.262Z,55.02
2022-08-30T08:41:11.723Z,56.12
2022-08-30T08:44:33.806Z,61.41
2022-08-30T08:47:43.420Z,59.15
2022-08-30T08:51:04.650Z,59.93
2022-08-30T08:54:16.092Z,59.30
2022-08-30T08:57:24.690Z,56.08
2022-08-30T09:00:34.065Z,54.98
2022-08-30T09:03:40.791Z,59.64
2022-08-30T09:06:54.468Z,66.95
2022-08-30T09:10:01.713Z,72.01
2022-08-30T09:13:07.911Z,70.29
2022-08-30T09:16:49.083Z,68.31
2022-08-30T09:20:01.188Z,71.24
2022-08-30T09:23:24.075Z,71.29
2022-08-30T09:26:33.503Z,74.38
2022-08-30T09:29:52.327Z,74.57
2022-08-30T09:33:02.887Z,73.34
2022-08-30T09:36:22.545Z,75.29
2022-08-30T09:39:32.752Z,75.90
2022-08-30T09:42:39.826Z,74.68
2022-08-30T09:45:50.471Z,75.20
2022-08-30T09:49:00.822Z,75.95
2022-08-30T09:52:18.229Z,75.46
2022-08-30T09:55:50.657Z,74.65
2022-08-30T09:59:07.288Z,73.47
2022-08-30T10:02:45.127Z,75.39
2022-08-30T10:06:00.159Z,74.52
2022-08-30T10:09:21.025Z,70.46
2022-08-30T10:12:33.766Z,70.47
2022-08-30T10:15:47.785Z,68.13
2022-08-30T10:19:06.350Z,67.72
2022-08-30T10:22:18.151Z,66.00
2022-08-30T10:25:30.207Z,61.28
2022-08-30T10:28:43.920Z,57.86
2022-08-30T10:32:00.222Z,57.74
2022-08-30T10:35:11.085Z,58.47
2022-08-30T10:38:25.889Z,56.11
2022-08-30T10:41:39.196Z,57.71
2022-08-30T10:44:48.098Z,56.88
2022-08-30T10:48:01.611Z,58.49
2022-08-30T10:51:11.675Z,59.49
2022-08-30T10:54:24.921Z,55.98
2022-08-30T10:57:31.620Z,61.23
2022-08-30T11:00:43.665Z,61.14
2022-08-30T11:04:21.960Z,64.64
2022-08-30T11:07:39.696Z,63.43
2022-08-30T11:11:00.660Z,61.83
2022-08-30T11:14:11.511Z,61.41
2022-08-30T11:17:30.710Z,56.12
2022-08-30T11:20:41.512Z,59.41
2022-08-30T11:24:01.278Z,54.11
2022-08-30T11:27:11.288Z,55.41
2022-08-30T11:30:52.995Z,52.93
2022-08-30T11:34:01.203Z,55.09
2022-08-30T11:37:10.396Z,60.72
2022-08-30T11:40:53.471Z,55.01
2022-08-30T11:44:27.947Z,56.09
2022-08-30T11:47:44.955Z,57.11
2022-08-30T11:50:56.564Z,63.14
2022-08-30T11:54:09.527Z,61.56
2022-08-30T11:57:27.556Z,58.75
2022-08-30T12:00:39.798Z,59.05
2022-08-30T12:03:56.425Z,59.06
2022-08-30T12:07:05.749Z,58.55
2022-08-30T12:10:25.746Z,57.04
2022-08-30T12:13:54.941Z,58.14
2022-08-30T12:17:21.123Z,60.89
2022-08-30T12:20:32.096Z,60.88
2022-08-30T12:23:49.759Z,62.28
2022-08-30T12:26:58.331Z,58.61
2022-08-30T12:30:08.671Z,60.62
2022-08-30T12:33:29.100Z,57.73
2022-08-30T12:36:39.731Z,58.10
2022-08-30T12:39:47.287Z,51.08
2022-08-30T12:43:02.898Z,48.44
2022-08-30T12:46:16.207Z,51.64
2022-08-30T12:49:28.236Z,49.32
2022-08-30T12:52:38.948Z,48.98
2022-08-30T12:55:54.172Z,52.49
2022-08-30T12:59:00.688Z,52.78
2022-08-30T13:02:20.357Z,51.56
2022-08-30T13:05:48.244Z,58.46
2022-08-30T13:08:55.672Z,58.09
2022-08-30T13:12:03.293Z,60.62
2022-08-30T13:15:18.249Z,55.92
2022-08-30T13:18:30.119Z,58.91
2022-08-30T13:21:51.683Z,78.76
2022-08-30T13:24:58.267Z,100.00
2022-08-30T13:28:06.439Z,100.00
2022-08-30T13:31:12.954Z,100.00
2022-08-30T13:34:22.442Z,100.00
2022-08-30T13:37:50.027Z,100.00
2022-08-30T13:40:57.302Z,100.00
2022-08-30T13:44:13.431Z,100.00
2022-08-30T13:47:37.301Z,100.00
2022-08-30T13:50:44.236Z,100.00
2022-08-30T13:53:53.361Z,100.00
2022-08-30T13:57:00.626Z,100.00
2022-08-30T14:00:12.245Z,100.00
2022-08-30T14:03:19.027Z,100.00
2022-08-30T14:06:33.715Z,100.00
2022-08-30T14:09:42.308Z,100.00
2022-08-30T14:13:00.825Z,100.00
2022-08-30T14:16:29.524Z,100.00
2022-08-30T14:19:36.114Z,100.00
2022-08-30T14:22:42.695Z,100.00
2022-08-30T14:25:50.452Z,100.00
2022-08-30T14:28:57.316Z,100.00
2022-08-30T14:32:06.046Z,100.00
2022-08-30T14:35:12.259Z,100.00
2022-08-30T14:38:18.919Z,100.00
2022-08-30T14:41:26.611Z,100.00
2022-08-30T14:44:54.819Z,100.00
2022-08-30T14:48:02.813Z,100.00
2022-08-30T14:51:17.732Z,100.00
2022-08-30T14:54:26.995Z,100.00
2022-08-30T14:57:35.070Z,100.00
2022-08-30T15:00:41.491Z,100.00
2022-08-30T15:03:48.239Z,100.00
2022-08-30T15:06:55.230Z,100.00
2022-08-30T15:10:01.727Z,100.00
2022-08-30T15:13:09.687Z,100.00
2022-08-30T15:16:18.219Z,100.00
2022-08-30T15:19:24.551Z,100.00
2022-08-30T15:22:30.754Z,100.00
2022-08-30T15:25:37.159Z,100.00
2022-08-30T15:28:50.575Z,100.00
2022-08-30T15:31:57.052Z,100.00
2022-08-30T15:35:04.370Z,100.00
2022-08-30T15:38:10.551Z,100.00
2022-08-30T15:41:18.954Z,100.00
2022-08-30T15:44:26.636Z,100.00
2022-08-30T15:47:33.192Z,100.00
2022-08-30T15:50:40.366Z,100.00
2022-08-30T15:53:47.669Z,100.00
2022-08-30T15:56:59.582Z,100.00
2022-08-30T16:00:09.444Z,100.00
2022-08-30T16:03:15.591Z,100.00
2022-08-30T16:06:24.411Z,100.00
2022-08-30T16:09:32.585Z,100.00
2022-08-30T16:12:38.994Z,100.00
2022-08-30T16:15:46.623Z,100.00
2022-08-30T16:18:55.266Z,100.00
2022-08-30T16:22:02.638Z,100.00
2022-08-30T16:25:09.567Z,100.00
2022-08-30T16:28:18.018Z,100.00
2022-08-30T16:31:27.026Z,100.00
2022-08-30T16:34:33.876Z,100.00
2022-08-30T16:37:40.003Z,100.00
2022-08-30T16:40:46.374Z,100.00
2022-08-30T16:43:53.737Z,100.00
2022-08-30T16:47:01.689Z,100.00
2022-08-30T16:50:08.786Z,100.00
2022-08-30T16:53:15.661Z,100.00
2022-08-30T16:56:25.142Z,100.00
2022-08-30T16:59:33.155Z,100.00
2022-08-30T17:02:42.749Z,100.00
2022-08-30T17:06:00.100Z,100.00
2022-08-30T17:09:08.000Z,100.00
2022-08-30T17:12:14.436Z,100.00
2022-08-30T17:15:22.242Z,100.00
2022-08-30T17:18:30.319Z,100.00
2022-08-30T17:21:37.234Z,100.00
2022-08-30T17:24:46.445Z,100.00
2022-08-30T17:27:52.922Z,100.00
2022-08-30T17:30:59.569Z,100.00
2022-08-30T17:34:07.583Z,100.00
2022-08-30T17:37:14.040Z,100.00
2022-08-30T17:40:21.019Z,100.00
2022-08-30T17:43:27.451Z,100.00
2022-08-30T17:46:36.787Z,100.00
2022-08-30T17:49:44.675Z,100.00
2022-08-30T17:52:51.492Z,100.00
2022-08-30T17:55:58.591Z,100.00
2022-08-30T17:59:08.148Z,100.00
2022-08-30T18:02:16.227Z,100.00
2022-08-30T18:05:31.034Z,100.00
2022-08-30T18:08:40.456Z,100.00
2022-08-30T18:11:46.630Z,100.00
2022-08-30T18:14:54.708Z,100.00
2022-08-30T18:18:01.036Z,100.00
2022-08-30T18:21:16.195Z,100.00
2022-08-30T18:24:23.125Z,100.00
2022-08-30T18:27:29.693Z,100.00
2022-08-30T18:30:39.980Z,100.00
2022-08-30T18:33:49.096Z,100.00
2022-08-30T18:36:57.532Z,100.00
2022-08-30T18:40:04.486Z,100.00
2022-08-30T18:43:10.924Z,100.00
2022-08-30T18:46:19.131Z,100.00
2022-08-30T18:49:25.961Z,100.00
2022-08-30T18:52:34.092Z,100.00
2022-08-30T18:55:42.373Z,100.00
2022-08-30T18:58:48.867Z,100.00
2022-08-30T19:01:55.318Z,100.00
2022-08-30T19:05:01.988Z,100.00
2022-08-30T19:08:09.976Z,100.00
2022-08-30T19:11:16.351Z,100.00
2022-08-30T19:14:23.323Z,100.00
2022-08-30T19:17:34.821Z,100.00
2022-08-30T19:20:41.102Z,100.00
2022-08-30T19:23:54.877Z,100.00
2022-08-30T19:27:01.471Z,100.00
2022-08-30T19:30:09.815Z,100.00
2022-08-30T19:33:17.524Z,100.00
2022-08-30T19:36:24.514Z,100.00
2022-08-30T19:39:33.300Z,100.00
2022-08-30T19:42:46.028Z,100.00
2022-08-30T19:45:55.769Z,100.00
2022-08-30T19:49:04.354Z,100.00
2022-08-30T19:52:11.234Z,100.00
2022-08-30T19:55:19.656Z,100.00
2022-08-30T19:58:35.102Z,100.00
2022-08-30T20:01:42.507Z,100.00
2022-08-30T20:04:51.788Z,100.00
2022-08-30T20:07:58.383Z,100.00
2022-08-30T20:11:07.152Z,100.00
2022-08-30T20:14:15.315Z,100.00
2022-08-30T20:17:22.132Z,100.00
2022-08-30T20:20:28.845Z,100.00
2022-08-30T20:23:35.787Z,100.00
2022-08-30T20:26:43.542Z,100.00
2022-08-30T20:29:49.640Z,100.00
2022-08-30T20:32:56.214Z,100.00
2022-08-30T20:36:03.795Z,100.00
2022-08-30T20:39:10.535Z,100.00
2022-08-30T20:42:26.238Z,100.00
2022-08-30T20:45:34.791Z,100.00
2022-08-30T20:48:41.890Z,100.00
2022-08-30T20:51:52.853Z,100.00
2022-08-30T20:55:00.878Z,100.00
2022-08-30T20:58:08.568Z,100.00
2022-08-30T21:01:17.238Z,100.00
2022-08-30T21:04:23.860Z,100.00
2022-08-30T21:07:30.479Z,100.00
2022-08-30T21:10:36.839Z,100.00
2022-08-30T21:13:45.660Z,100.00
2022-08-30T21:16:52.137Z,100.00
2022-08-30T21:19:59.099Z,100.00
2022-08-30T21:23:05.827Z,100.00
2022-08-30T21:26:12.287Z,100.00
2022-08-30T21:29:20.154Z,100.00
2022-08-30T21:32:26.387Z,100.00
2022-08-30T21:35:49.871Z,100.00
2022-08-30T21:39:00.732Z,100.00
2022-08-30T21:42:07.547Z,100.00
2022-08-30T21:45:16.692Z,100.00
2022-08-30T21:48:23.313Z,100.00
2022-08-30T21:51:30.539Z,100.00
2022-08-30T21:54:37.019Z,100.00
2022-08-30T21:57:43.597Z,100.00
2022-08-30T22:00:51.998Z,100.00
2022-08-30T22:04:00.902Z,100.00
2022-08-30T22:07:08.414Z,100.00
2022-08-30T22:10:14.972Z,100.00
2022-08-30T22:13:21.034Z,100.00
2022-08-30T22:16:29.418Z,100.00
2022-08-30T22:19:36.036Z,100.00
2022-08-30T22:22:42.691Z,100.00
2022-08-30T22:25:51.232Z,100.00
2022-08-30T22:28:57.680Z,100.00
2022-08-30T22:32:06.090Z,100.00
2022-08-30T22:35:12.567Z,100.00
2022-08-30T22:38:19.035Z,100.00
2022-08-30T22:41:31.458Z,100.00
2022-08-30T22:44:38.225Z,100.00
2022-08-30T22:47:46.043Z,100.00
2022-08-30T22:50:52.170Z,100.00
2022-08-30T22:53:58.758Z,100.00
2022-08-30T22:57:04.899Z,100.00
2022-08-30T23:00:15.738Z,100.00
2022-08-30T23:03:23.707Z,100.00
2022-08-30T23:06:30.759Z,100.00
2022-08-30T23:09:37.002Z,100.00
2022-08-30T23:12:43.172Z,100.00
2022-08-30T23:15:49.358Z,100.00
2022-08-30T23:18:56.918Z,100.00
2022-08-30T23:22:03.418Z,100.00
2022-08-30T23:25:28.120Z,100.00
2022-08-30T23:28:55.567Z,100.00
2022-08-30T23:32:19.411Z,100.00
2022-08-30T23:35:44.581Z,100.00
2022-08-30T23:39:08.463Z,100.00
2022-08-30T23:42:33.675Z,100.00
2022-08-30T23:45:57.920Z,100.00
2022-08-30T23:49:21.676Z,100.00
2022-08-30T23:52:46.645Z,100.00
2022-08-30T23:56:10.339Z,100.00
2022-08-30T23:59:35.351Z,100.00
